Terminal Aerodrome Forecast
Issued by NWS

Home | Current Version | Previous Version | Text Only | Print | Product List | Glossary On
Versions: 1 2 3 4 5 6 7 8 9 10 11 12
000
FTUS43 KEAX 221521 AAA
TAFMKC
TAF AMD
KMKC 221521Z 2215/2312 22009KT P6SM FEW200
      TEMPO 2215/2217 10012G22KT SCT050=

USA.gov is the U.S. government's official web portal to all federal, state and local government web resources and services.